Time;durP1;ratioP1;P1;durP2;ratioP2;P2;SDS_P1;SDS_P2;PMS_P1;PMS_P2;Temp;Humidity;BMP_temperature;BMP_pressure;BME280_temperature;BME280_humidity;BME280_pressure;Samples;Min_cycle;Max_cycle;Signal;HPM_P1;HPM_P2
2022/06/14 00:02:21;;;;;;;14.90;14.10;;;9.60;96.40;;;;;;5059120;28;20504;-84
2022/06/14 00:04:50;;;;;;;35.67;34.07;;;9.50;96.80;;;;;;5060239;28;20455;-84
2022/06/14 00:07:16;;;;;;;45.67;43.77;;;9.50;99.90;;;;;;5060334;28;20475;-84
2022/06/14 00:09:44;;;;;;;37.63;35.80;;;9.30;99.90;;;;;;5060143;28;20887;-84
2022/06/14 00:12:12;;;;;;;36.70;34.70;;;9.20;99.90;;;;;;5058853;28;20447;-85
2022/06/14 00:14:39;;;;;;;69.13;66.13;;;9.20;99.90;;;;;;5059516;28;20455;-84
2022/06/14 00:17:06;;;;;;;72.87;69.57;;;9.20;99.90;;;;;;5060703;28;20467;-84
2022/06/14 00:19:33;;;;;;;78.30;75.27;;;9.00;99.90;;;;;;5059876;28;20802;-85
2022/06/14 00:22:02;;;;;;;99.17;94.97;;;9.00;99.90;;;;;;5059965;28;20472;-84
2022/06/14 00:24:29;;;;;;;113.23;108.67;;;8.90;99.90;;;;;;5060523;28;20459;-84
2022/06/14 00:26:55;;;;;;;111.63;107.77;;;8.90;99.90;;;;;;5060354;28;20570;-84
2022/06/14 00:29:22;;;;;;;124.73;120.23;;;8.90;99.90;;;;;;5060835;28;20452;-84
2022/06/14 00:31:49;;;;;;;142.83;137.87;;;8.90;99.90;;;;;;5062301;28;20455;-84
2022/06/14 00:34:16;;;;;;;127.77;123.13;;;8.90;99.90;;;;;;5060971;28;20971;-84
2022/06/14 00:36:51;;;;;;;126.77;122.27;;;8.80;99.90;;;;;;5060670;28;20471;-85
2022/06/14 00:39:19;;;;;;;124.13;119.43;;;8.80;99.90;;;;;;5059676;28;20831;-84
2022/06/14 00:41:49;;;;;;;204.57;197.50;;;8.70;99.90;;;;;;5059990;28;20475;-84
2022/06/14 00:44:18;;;;;;;269.37;259.80;;;8.60;99.90;;;;;;5060380;28;20447;-84
2022/06/14 00:46:53;;;;;;;220.27;212.60;;;8.60;99.90;;;;;;5059768;28;20475;-84
2022/06/14 00:49:23;;;;;;;236.33;227.53;;;8.60;99.90;;;;;;5059922;28;20439;-85
2022/06/14 00:51:56;;;;;;;236.80;228.40;;;8.40;99.90;;;;;;5060111;28;20513;-84
2022/06/14 00:54:27;;;;;;;221.83;214.37;;;8.40;99.90;;;;;;5060501;28;20452;-84
2022/06/14 00:57:00;;;;;;;177.53;171.13;;;8.30;99.90;;;;;;5060027;28;20474;-84
2022/06/14 00:59:32;;;;;;;195.63;188.47;;;8.20;99.90;;;;;;5057921;28;20455;-84
2022/06/14 01:02:09;;;;;;;287.77;277.17;;;8.20;99.90;;;;;;5060018;28;21008;-83
2022/06/14 01:04:36;;;;;;;318.77;306.43;;;8.00;99.90;;;;;;5059681;28;20458;-83
2022/06/14 01:07:09;;;;;;;359.03;346.23;;;8.00;99.90;;;;;;5061087;28;20467;-83
2022/06/14 01:09:43;;;;;;;274.33;265.03;;;8.10;99.90;;;;;;5059453;28;20455;-82
2022/06/14 01:12:14;;;;;;;280.10;270.90;;;7.90;99.90;;;;;;5059531;28;20833;-82
2022/06/14 01:14:46;;;;;;;288.20;278.83;;;7.80;99.90;;;;;;5059942;28;20826;-83
2022/06/14 01:17:14;;;;;;;240.37;232.63;;;7.80;99.90;;;;;;5059024;28;20479;-82
2022/06/14 01:19:42;;;;;;;226.57;219.00;;;7.70;99.90;;;;;;5057825;28;20839;-83
2022/06/14 01:22:25;;;;;;;279.97;270.77;;;7.60;99.90;;;;;;5058943;28;20471;-82
2022/06/14 01:24:52;;;;;;;263.77;254.97;;;7.50;99.90;;;;;;5058754;28;20451;-82
2022/06/14 01:27:21;;;;;;;250.30;241.50;;;7.50;99.90;;;;;;5059574;28;20475;-84
2022/06/14 01:29:56;;;;;;;292.63;281.97;;;7.40;99.90;;;;;;5058212;28;20809;-85
2022/06/14 01:32:26;;;;;;;392.30;377.13;;;7.30;99.90;;;;;;5058597;28;20524;-84
2022/06/14 01:34:58;;;;;;;351.10;338.07;;;7.30;99.90;;;;;;5059341;28;20454;-84
2022/06/14 01:37:27;;;;;;;421.30;403.90;;;7.20;99.90;;;;;;5059236;28;20455;-84
2022/06/14 01:39:55;;;;;;;481.47;461.37;;;7.10;99.90;;;;;;5058805;28;20466;-84
2022/06/14 01:42:30;;;;;;;486.43;466.33;;;7.20;99.90;;;;;;5058767;28;20521;-84
2022/06/14 01:45:05;;;;;;;418.20;401.37;;;7.20;99.90;;;;;;5058288;28;20833;-84
2022/06/14 01:47:40;;;;;;;415.20;398.63;;;7.10;99.90;;;;;;5058699;28;20625;-84
2022/06/14 01:53:20;;;;;;;457.87;439.37;;;7.00;99.90;;;;;;5058915;28;20495;-84
2022/06/14 01:55:52;;;;;;;545.73;521.53;;;7.00;99.90;;;;;;5058490;28;20475;-84
2022/06/14 01:58:25;;;;;;;520.20;497.17;;;7.00;99.90;;;;;;5060368;28;20459;-83
2022/06/14 02:00:56;;;;;;;582.63;554.27;;;7.00;99.90;;;;;;5056446;28;20447;-83
2022/06/14 02:06:19;;;;;;;519.80;495.97;;;7.10;99.90;;;;;;5058387;28;20488;-82
2022/06/14 02:08:53;;;;;;;590.77;561.57;;;6.90;99.90;;;;;;5057589;28;20463;-82
2022/06/14 02:11:26;;;;;;;579.37;550.57;;;7.00;99.90;;;;;;5058000;28;20451;-82
2022/06/14 02:13:57;;;;;;;619.57;588.67;;;7.00;99.90;;;;;;5057374;28;20451;-82
2022/06/14 02:16:28;;;;;;;620.60;590.03;;;6.90;99.90;;;;;;5057939;28;20471;-82
2022/06/14 02:19:02;;;;;;;619.70;588.50;;;6.90;99.90;;;;;;5058030;28;20459;-82
2022/06/14 02:21:33;;;;;;;658.43;623.87;;;6.90;99.90;;;;;;5058066;28;20483;-83
2022/06/14 02:24:07;;;;;;;657.47;623.77;;;6.90;99.90;;;;;;5058524;28;20512;-83
2022/06/14 02:26:36;;;;;;;705.77;666.17;;;6.90;99.90;;;;;;5057767;28;20822;-83
2022/06/14 02:29:09;;;;;;;709.80;669.67;;;7.00;99.90;;;;;;5058037;28;20459;-82
2022/06/14 02:31:39;;;;;;;707.70;667.80;;;7.00;99.90;;;;;;5058044;28;20452;-82
2022/06/14 02:34:10;;;;;;;725.90;684.53;;;7.10;99.90;;;;;;5057788;28;20805;-82
2022/06/14 02:36:41;;;;;;;751.77;708.10;;;7.10;99.90;;;;;;5059467;28;20471;-83
2022/06/14 02:39:13;;;;;;;730.33;688.87;;;7.10;99.90;;;;;;5061618;28;20463;-83
2022/06/14 02:41:44;;;;;;;765.63;719.47;;;7.10;99.90;;;;;;5062767;28;20479;-82
2022/06/14 02:44:15;;;;;;;763.33;718.27;;;7.10;99.90;;;;;;5062066;28;20455;-83
2022/06/14 02:46:48;;;;;;;753.20;708.60;;;7.10;99.90;;;;;;5061964;28;20486;-82
2022/06/14 02:49:21;;;;;;;753.17;708.70;;;7.10;99.90;;;;;;5060948;28;21001;-82
2022/06/14 02:51:52;;;;;;;711.27;671.77;;;7.00;99.90;;;;;;5061769;28;20825;-82
2022/06/14 02:54:26;;;;;;;696.70;658.53;;;6.90;99.90;;;;;;5061518;28;20821;-82
2022/06/14 02:56:58;;;;;;;720.47;680.97;;;6.90;99.90;;;;;;5061998;28;20475;-82
2022/06/14 02:59:30;;;;;;;721.60;680.43;;;7.00;99.90;;;;;;5061296;28;20447;-82
2022/06/14 03:02:01;;;;;;;718.10;676.97;;;6.90;99.90;;;;;;5061991;28;20944;-82
2022/06/14 03:04:34;;;;;;;627.27;595.50;;;6.90;99.90;;;;;;5063788;28;20458;-82
2022/06/14 03:07:06;;;;;;;638.83;605.93;;;6.90;99.90;;;;;;5061765;28;20474;-82
2022/06/14 03:09:36;;;;;;;605.70;576.93;;;6.70;99.90;;;;;;5060718;28;20458;-82
2022/06/14 03:12:14;;;;;;;673.10;638.17;;;6.60;99.90;;;;;;5060939;28;20443;-82
2022/06/14 03:14:52;;;;;;;676.13;641.43;;;6.60;99.90;;;;;;5061219;28;20459;-82
2022/06/14 03:17:26;;;;;;;587.23;559.87;;;6.60;99.90;;;;;;5060744;28;20486;-82
2022/06/14 03:20:08;;;;;;;574.50;547.97;;;6.50;99.90;;;;;;5060151;28;20447;-82
2022/06/14 03:22:44;;;;;;;589.80;562.90;;;6.40;99.90;;;;;;5061292;28;20478;-82
2022/06/14 03:25:21;;;;;;;635.60;605.27;;;6.50;99.90;;;;;;5060255;28;20450;-82
2022/06/14 03:27:53;;;;;;;629.47;600.20;;;6.40;99.90;;;;;;5061096;28;20457;-82
2022/06/14 03:30:26;;;;;;;598.33;570.90;;;6.40;99.90;;;;;;5060170;28;20459;-82
2022/06/14 03:33:00;;;;;;;659.80;627.73;;;6.30;99.90;;;;;;5061140;28;20454;-82
2022/06/14 03:35:32;;;;;;;676.83;643.23;;;6.30;99.90;;;;;;5060536;28;20466;-82
2022/06/14 03:38:04;;;;;;;695.47;660.73;;;6.30;99.90;;;;;;5061169;28;20451;-82
2022/06/14 03:40:32;;;;;;;729.77;691.77;;;6.40;99.90;;;;;;5060528;28;20944;-81
2022/06/14 03:43:00;;;;;;;758.20;715.90;;;6.40;99.90;;;;;;5059944;28;20851;-82
2022/06/14 03:45:36;;;;;;;748.73;708.00;;;6.40;99.90;;;;;;5060356;28;20483;-82
2022/06/14 03:48:05;;;;;;;698.00;661.20;;;6.40;99.90;;;;;;5060746;28;20486;-82
2022/06/14 03:50:43;;;;;;;696.23;660.80;;;6.40;99.90;;;;;;5060724;28;20981;-82
2022/06/14 03:53:27;;;;;;;727.80;689.47;;;6.40;99.90;;;;;;5058910;28;20451;-82
2022/06/14 03:56:10;;;;;;;799.77;753.17;;;6.40;99.90;;;;;;5059220;28;20482;-82
2022/06/14 03:59:01;;;;;;;766.17;723.00;;;6.50;99.90;;;;;;5058460;28;20843;-82
2022/06/14 04:01:31;;;;;;;757.83;714.80;;;6.50;99.90;;;;;;5059304;28;20455;-83
2022/06/14 04:04:19;;;;;;;732.70;692.80;;;6.50;99.90;;;;;;5062142;28;20982;-82
2022/06/14 04:06:57;;;;;;;728.83;688.90;;;6.50;99.90;;;;;;5061411;28;20475;-82
2022/06/14 04:09:41;;;;;;;751.57;709.60;;;6.50;99.90;;;;;;5061232;28;20913;-83
2022/06/14 04:12:19;;;;;;;715.10;675.90;;;6.60;99.90;;;;;;5061151;28;20466;-82
2022/06/14 04:15:27;;;;;;;747.87;705.93;;;6.60;99.90;;;;;;5061437;28;20457;-82
2022/06/14 04:18:34;;;;;;;775.30;730.33;;;6.70;99.90;;;;;;5060664;28;20455;-82
2022/06/14 04:21:03;;;;;;;711.13;671.40;;;6.90;99.90;;;;;;5060580;28;20482;-82
2022/06/14 04:23:49;;;;;;;766.57;722.40;;;6.90;99.90;;;;;;5058692;28;20478;-84
2022/06/14 04:26:25;;;;;;;785.33;737.57;;;7.10;99.90;;;;;;5059260;28;20502;-84
2022/06/14 04:29:12;;;;;;;756.87;709.70;;;7.20;99.90;;;;;;5057742;28;20455;-84
2022/06/14 04:31:43;;;;;;;759.47;713.47;;;7.30;99.90;;;;;;5059703;28;20829;-84
2022/06/14 04:34:16;;;;;;;767.23;722.37;;;7.40;99.90;;;;;;5059510;28;20450;-81
2022/06/14 04:36:54;;;;;;;742.97;700.70;;;7.50;99.90;;;;;;5060530;28;20524;-79
2022/06/14 04:39:30;;;;;;;704.30;665.97;;;7.50;99.90;;;;;;5060575;28;20486;-82
2022/06/14 04:42:03;;;;;;;722.70;682.83;;;7.60;99.90;;;;;;5059297;28;22409;-82
2022/06/14 04:44:38;;;;;;;707.50;668.60;;;7.60;99.90;;;;;;5057192;28;20451;-81
2022/06/14 04:47:12;;;;;;;731.20;690.67;;;7.80;99.90;;;;;;5057357;28;20485;-81
2022/06/14 04:49:45;;;;;;;732.03;691.23;;;7.80;99.90;;;;;;5054288;28;20802;-81
2022/06/14 04:52:16;;;;;;;736.17;694.77;;;8.00;99.90;;;;;;5057758;28;20451;-81
2022/06/14 04:54:50;;;;;;;735.23;692.80;;;8.00;99.90;;;;;;5056385;28;20464;-82
2022/06/14 04:57:23;;;;;;;697.80;658.37;;;8.20;99.90;;;;;;5054176;28;20533;-82
2022/06/14 04:59:54;;;;;;;676.03;637.47;;;8.40;99.90;;;;;;5054175;28;20451;-82
2022/06/14 05:02:26;;;;;;;659.63;624.33;;;8.50;99.90;;;;;;5057162;28;20478;-81
2022/06/14 05:04:56;;;;;;;689.83;651.53;;;8.60;99.90;;;;;;5054775;28;20455;-81
2022/06/14 05:07:27;;;;;;;765.30;718.00;;;8.70;99.90;;;;;;5057183;28;20451;-81
2022/06/14 05:10:06;;;;;;;745.63;699.27;;;9.00;99.90;;;;;;5056988;28;20458;-81
2022/06/14 05:12:40;;;;;;;770.87;721.67;;;9.30;99.90;;;;;;5053735;28;21052;-82
2022/06/14 05:15:14;;;;;;;779.10;729.07;;;9.50;99.90;;;;;;5056617;28;20455;-82
2022/06/14 05:17:46;;;;;;;758.63;708.20;;;9.80;99.90;;;;;;5056561;28;20894;-82
2022/06/14 05:20:17;;;;;;;451.37;428.50;;;10.20;99.90;;;;;;5056440;28;20498;-82
2022/06/14 05:22:49;;;;;;;163.80;154.67;;;10.80;99.90;;;;;;5056694;28;20482;-82
2022/06/14 05:25:17;;;;;;;25.10;23.33;;;11.40;99.90;;;;;;5056272;28;20482;-82
2022/06/14 05:27:53;;;;;;;13.37;8.20;;;11.90;99.90;;;;;;5056383;28;20995;-82
2022/06/14 05:30:35;;;;;;;14.70;5.47;;;12.30;99.90;;;;;;5055741;28;20466;-82
2022/06/14 05:33:09;;;;;;;12.27;4.60;;;12.90;96.80;;;;;;5056923;28;21050;-83
2022/06/14 05:35:40;;;;;;;8.27;4.37;;;13.50;92.30;;;;;;5056924;28;20533;-83
2022/06/14 05:38:22;;;;;;;14.40;6.50;;;13.80;85.40;;;;;;5056311;28;20452;-82
2022/06/14 05:40:55;;;;;;;9.20;4.40;;;14.00;79.80;;;;;;5056061;28;20998;-81
2022/06/14 05:43:29;;;;;;;15.57;4.57;;;14.60;74.00;;;;;;5056397;28;20486;-80
2022/06/14 05:46:04;;;;;;;9.63;4.57;;;14.70;71.90;;;;;;5056537;28;20853;-81
2022/06/14 05:48:33;;;;;;;9.80;5.23;;;15.00;67.60;;;;;;5056682;28;20523;-80
2022/06/14 05:51:02;;;;;;;8.07;4.00;;;15.20;67.10;;;;;;5056797;28;20457;-80
2022/06/14 05:53:36;;;;;;;10.73;4.37;;;15.30;62.70;;;;;;5055614;28;20449;-81
2022/06/14 05:56:11;;;;;;;13.20;4.93;;;15.30;61.00;;;;;;5056288;28;20478;-81
2022/06/14 05:58:42;;;;;;;11.60;4.80;;;15.40;62.60;;;;;;5055295;28;20456;-81
2022/06/14 06:01:16;;;;;;;9.00;4.30;;;15.40;61.80;;;;;;5057020;28;20454;-82
2022/06/14 06:03:49;;;;;;;10.53;4.23;;;15.40;61.90;;;;;;5059105;28;20489;-82
2022/06/14 06:06:19;;;;;;;8.60;4.23;;;15.50;59.70;;;;;;5056076;28;20485;-82
2022/06/14 06:08:50;;;;;;;11.10;4.20;;;15.70;61.90;;;;;;5057912;28;20453;-81
2022/06/14 06:11:21;;;;;;;8.40;4.00;;;16.40;58.50;;;;;;5059687;28;20465;-82
2022/06/14 06:13:51;;;;;;;9.20;4.37;;;16.30;56.70;;;;;;5059051;28;20458;-82
2022/06/14 06:16:23;;;;;;;10.47;5.07;;;16.70;54.70;;;;;;5058756;28;20486;-82
2022/06/14 06:18:54;;;;;;;10.50;4.63;;;17.20;54.10;;;;;;5057922;28;20456;-82
2022/06/14 06:21:28;;;;;;;9.20;4.90;;;17.30;50.80;;;;;;5058294;28;20464;-82
2022/06/14 06:24:00;;;;;;;10.20;4.87;;;17.30;50.70;;;;;;5058391;28;20851;-82
2022/06/14 06:26:31;;;;;;;11.87;5.97;;;17.60;47.10;;;;;;5056919;28;20476;-82
2022/06/14 06:29:04;;;;;;;9.80;4.90;;;17.40;48.00;;;;;;5056009;28;20458;-82
2022/06/14 06:31:36;;;;;;;10.20;4.77;;;17.70;45.90;;;;;;5056964;28;20464;-82
2022/06/14 06:34:10;;;;;;;11.63;5.70;;;17.70;44.50;;;;;;5057000;28;20451;-82
2022/06/14 06:36:48;;;;;;;9.60;4.43;;;17.60;44.70;;;;;;5057322;28;20469;-82
2022/06/14 06:39:32;;;;;;;10.53;5.20;;;17.60;46.00;;;;;;5056548;28;20458;-82
2022/06/14 06:42:05;;;;;;;13.67;6.80;;;17.80;45.20;;;;;;5058239;28;20970;-82
2022/06/14 06:44:38;;;;;;;13.90;5.93;;;17.60;42.10;;;;;;5056946;28;20474;-82
2022/06/14 06:47:12;;;;;;;17.43;6.73;;;18.30;45.60;;;;;;5056566;28;20573;-82
2022/06/14 06:49:52;;;;;;;13.10;5.27;;;18.70;41.10;;;;;;5056947;28;20518;-82
2022/06/14 06:52:24;;;;;;;12.30;5.07;;;18.50;41.80;;;;;;5059462;28;20457;-82
2022/06/14 06:54:56;;;;;;;10.70;4.90;;;18.60;42.60;;;;;;5057435;28;20453;-82
2022/06/14 06:57:26;;;;;;;15.57;4.83;;;18.30;40.80;;;;;;5063931;28;20458;-82
2022/06/14 06:59:55;;;;;;;10.90;4.30;;;18.20;39.10;;;;;;5064165;28;20459;-81
2022/06/14 07:02:27;;;;;;;12.20;5.40;;;18.80;40.30;;;;;;5066494;28;20458;-82
2022/06/14 07:05:07;;;;;;;12.80;5.00;;;19.40;40.30;;;;;;5063233;28;20454;-82
2022/06/14 07:07:41;;;;;;;15.07;4.60;;;19.20;34.70;;;;;;5057075;28;20511;-82
2022/06/14 07:10:18;;;;;;;11.47;4.73;;;18.80;35.50;;;;;;5056366;28;20527;-81
2022/06/14 07:12:50;;;;;;;12.50;4.97;;;18.70;35.60;;;;;;5056113;28;20836;-81
2022/06/14 07:15:22;;;;;;;16.00;4.30;;;19.00;36.30;;;;;;5056154;28;20484;-81
2022/06/14 07:17:55;;;;;;;8.83;3.83;;;19.50;34.80;;;;;;5056939;28;20456;-82
2022/06/14 07:20:32;;;;;;;10.67;4.10;;;19.70;29.20;;;;;;5054450;28;20457;-79
2022/06/14 07:23:05;;;;;;;8.70;4.27;;;20.00;29.10;;;;;;5057779;28;20509;-83
2022/06/14 07:25:36;;;;;;;10.47;3.83;;;20.60;29.50;;;;;;5061053;28;20482;-83
2022/06/14 07:28:08;;;;;;;10.50;4.23;;;20.70;27.50;;;;;;5060411;28;21140;-82
2022/06/14 07:30:40;;;;;;;9.10;4.13;;;20.50;27.40;;;;;;5059903;28;20461;-84
2022/06/14 07:33:11;;;;;;;12.40;3.80;;;20.80;24.50;;;;;;5061642;28;20456;-81
2022/06/14 07:35:45;;;;;;;14.07;4.70;;;21.00;23.30;;;;;;5061416;28;20846;-83
2022/06/14 07:38:18;;;;;;;10.70;4.10;;;21.30;23.90;;;;;;5059857;28;20862;-83
2022/06/14 07:40:53;;;;;;;9.80;5.23;;;21.20;23.40;;;;;;5061185;28;20464;-83
2022/06/14 07:43:26;;;;;;;11.17;3.90;;;21.10;25.80;;;;;;5061530;28;20464;-82
2022/06/14 07:45:54;;;;;;;11.40;4.10;;;20.90;25.60;;;;;;5061005;28;20480;-84
2022/06/14 07:48:31;;;;;;;7.53;3.53;;;20.40;26.10;;;;;;5060687;28;20453;-83
2022/06/14 07:51:02;;;;;;;11.53;4.50;;;20.10;27.20;;;;;;5062406;28;20458;-83
2022/06/14 07:53:34;;;;;;;9.37;4.63;;;20.00;27.10;;;;;;5060698;28;20447;-83
2022/06/14 07:56:05;;;;;;;14.23;4.63;;;20.00;27.00;;;;;;5059985;28;20476;-83
2022/06/14 07:58:38;;;;;;;8.00;3.07;;;19.70;26.70;;;;;;5060501;28;20465;-83
2022/06/14 08:01:10;;;;;;;7.07;3.90;;;19.50;26.70;;;;;;5059089;28;20450;-83
2022/06/14 08:03:44;;;;;;;8.73;3.90;;;20.00;26.20;;;;;;5061032;28;20847;-83
2022/06/14 08:06:15;;;;;;;8.43;3.80;;;20.50;22.50;;;;;;5058567;28;20497;-86
2022/06/14 08:08:44;;;;;;;11.93;3.77;;;20.40;20.00;;;;;;5053257;28;20454;-86
2022/06/14 08:11:16;;;;;;;10.83;3.00;;;20.80;22.70;;;;;;5053572;28;20458;-86
2022/06/14 08:13:47;;;;;;;10.60;3.03;;;20.90;19.80;;;;;;5054779;28;20457;-84
2022/06/14 08:16:15;;;;;;;10.83;3.43;;;20.80;17.20;;;;;;5054638;28;20473;-84
2022/06/14 08:18:49;;;;;;;7.97;3.63;;;21.00;17.50;;;;;;5053651;28;20451;-84
2022/06/14 08:21:20;;;;;;;7.43;2.80;;;21.20;18.30;;;;;;5054035;28;20464;-84
2022/06/14 08:23:52;;;;;;;11.47;3.60;;;21.00;17.20;;;;;;5053409;28;20479;-85
2022/06/14 08:26:24;;;;;;;9.27;3.40;;;20.90;17.20;;;;;;5053368;28;20561;-85
2022/06/14 08:28:57;;;;;;;7.97;2.80;;;21.30;16.20;;;;;;5052795;28;20452;-85
2022/06/14 08:31:32;;;;;;;11.23;3.00;;;21.30;12.20;;;;;;5053657;28;20847;-85
2022/06/14 08:34:08;;;;;;;6.33;3.03;;;21.60;13.30;;;;;;5050838;28;20478;-86
2022/06/14 08:36:44;;;;;;;8.60;3.20;;;21.90;13.60;;;;;;5053475;28;20485;-85
2022/06/14 08:39:14;;;;;;;13.97;3.53;;;22.10;11.30;;;;;;5052743;28;20454;-85
2022/06/14 08:41:52;;;;;;;7.77;2.33;;;22.50;10.20;;;;;;5053226;28;20454;-85
2022/06/14 08:44:22;;;;;;;11.30;2.80;;;23.10;8.60;;;;;;5053409;28;20433;-86
2022/06/14 08:47:07;;;;;;;7.50;2.67;;;22.90;11.50;;;;;;5067311;22;20502;-84
2022/06/14 08:49:59;;;;;;;11.33;2.83;;;23.30;7.60;;;;;;5033691;28;20449;-84
2022/06/14 08:52:51;;;;;;;5.43;2.27;;;23.10;6.80;;;;;;5034155;28;20458;-84
2022/06/14 08:55:47;;;;;;;6.03;1.97;;;22.50;6.30;;;;;;5025751;28;20510;-84
2022/06/14 08:58:41;;;;;;;6.10;2.23;;;22.30;4.60;;;;;;5013674;28;20468;-83
2022/06/14 09:01:15;;;;;;;6.60;2.40;;;22.70;6.50;;;;;;5016047;28;20456;-81
2022/06/14 09:04:10;;;;;;;7.00;2.20;;;23.50;2.10;;;;;;5017090;28;20464;-81
2022/06/14 09:06:58;;;;;;;8.17;2.50;;;24.00;1.30;;;;;;5006136;28;20472;-82
2022/06/14 09:09:58;;;;;;;8.57;2.40;;;24.10;1.00;;;;;;5016391;28;20449;-82
2022/06/14 09:12:44;;;;;;;10.87;2.20;;;23.70;1.00;;;;;;5016183;28;20457;-82
2022/06/14 09:15:47;;;;;;;12.00;2.80;;;23.80;1.00;;;;;;5015681;28;20483;-82
2022/06/14 09:18:55;;;;;;;9.33;1.70;;;23.30;2.80;;;;;;5014760;28;20452;-82
2022/06/14 09:21:40;;;;;;;6.90;2.03;;;23.70;1.00;;;;;;4959837;28;20502;-82
2022/06/14 09:24:24;;;;;;;7.37;2.30;;;24.30;1.00;;;;;;5015879;28;20510;-82
2022/06/14 09:27:18;;;;;;;9.93;2.83;;;24.10;1.00;;;;;;5014823;28;20993;-82
2022/06/14 09:30:04;;;;;;;13.00;2.80;;;23.70;1.00;;;;;;5014247;28;20456;-82
2022/06/14 09:33:14;;;;;;;7.23;2.73;;;24.20;1.00;;;;;;5015324;28;20467;-82
2022/06/14 09:36:17;;;;;;;5.47;2.73;;;24.00;1.00;;;;;;5015125;28;20472;-82
2022/06/14 09:39:22;;;;;;;8.60;2.83;;;23.70;1.00;;;;;;5004727;28;20548;-82
2022/06/14 09:42:32;;;;;;;9.87;2.97;;;24.00;1.00;;;;;;5015391;28;20484;-82
2022/06/14 09:45:54;;;;;;;5.47;2.57;;;24.50;1.40;;;;;;4990042;28;20523;-82
2022/06/14 09:49:01;;;;;;;8.33;2.67;;;24.10;1.00;;;;;;5014318;28;20880;-82
2022/06/14 09:51:58;;;;;;;8.13;3.27;;;23.70;1.00;;;;;;5005831;28;20431;-82
2022/06/14 09:55:00;;;;;;;6.97;2.83;;;23.20;1.00;;;;;;5013784;28;20559;-82
2022/06/14 09:58:00;;;;;;;8.90;2.63;;;23.40;1.00;;;;;;5014136;28;20530;-82
2022/06/14 10:00:44;;;;;;;7.03;2.20;;;23.50;1.50;;;;;;4998082;28;20527;-82
2022/06/14 10:03:46;;;;;;;6.60;2.80;;;23.90;1.00;;;;;;5014058;28;20452;-83
2022/06/14 10:06:48;;;;;;;6.50;2.87;;;23.30;1.90;;;;;;5013076;28;20483;-82
2022/06/14 10:09:45;;;;;;;7.80;2.80;;;23.40;1.80;;;;;;5013179;28;20480;-83
2022/06/14 10:12:27;;;;;;;7.60;2.77;;;23.70;1.00;;;;;;5012344;28;20457;-82
2022/06/14 10:15:02;;;;;;;6.97;3.17;;;25.50;1.00;;;;;;5014924;28;20899;-82
2022/06/14 10:18:12;;;;;;;9.70;3.07;;;25.30;1.00;;;;;;5014764;28;20564;-82
2022/06/14 10:20:52;;;;;;;7.77;2.90;;;25.60;1.00;;;;;;5008493;28;20457;-83
2022/06/14 10:24:14;;;;;;;10.33;4.40;;;25.50;1.00;;;;;;5016443;28;20448;-81
2022/06/14 10:34:01;;;;;;;9.47;2.60;;;26.20;1.00;;;;;;5023586;28;20852;-81
2022/06/14 10:40:20;;;;;;;12.70;2.90;;;25.00;1.00;;;;;;5014468;28;20898;-81
2022/06/14 10:42:59;;;;;;;13.03;3.10;;;25.70;1.00;;;;;;5026758;28;20540;-83
2022/06/14 10:45:32;;;;;;;7.97;2.83;;;26.20;1.00;;;;;;5023155;28;20512;-81
2022/06/14 10:48:23;;;;;;;11.20;3.23;;;25.70;1.00;;;;;;5016662;28;20453;-79
2022/06/14 10:50:58;;;;;;;8.63;3.37;;;25.70;1.00;;;;;;5012885;28;20457;-78
2022/06/14 10:53:34;;;;;;;6.77;2.80;;;26.00;1.00;;;;;;5013719;28;20464;-78
2022/06/14 10:56:18;;;;;;;9.97;3.47;;;26.90;1.00;;;;;;5012591;28;20476;-77
2022/06/14 10:59:16;;;;;;;9.67;3.07;;;27.30;1.00;;;;;;5016126;28;20472;-78
2022/06/14 11:01:53;;;;;;;6.87;2.80;;;27.20;1.00;;;;;;5009482;28;20453;-77
2022/06/14 11:04:28;;;;;;;7.30;2.97;;;27.40;1.00;;;;;;5016326;28;20483;-78
2022/06/14 11:07:26;;;;;;;10.53;3.50;;;28.30;1.00;;;;;;5018141;28;20820;-78
2022/06/14 11:10:23;;;;;;;9.80;3.27;;;28.90;1.00;;;;;;5018179;28;20556;-78
2022/06/14 11:12:57;;;;;;;9.57;2.90;;;28.70;1.00;;;;;;5018896;28;20468;-78
2022/06/14 11:15:32;;;;;;;8.10;3.23;;;28.40;1.00;;;;;;5019186;28;20452;-78
2022/06/14 11:18:22;;;;;;;6.83;2.90;;;28.20;1.00;;;;;;5018801;28;20946;-78
2022/06/14 11:20:56;;;;;;;8.10;3.53;;;28.30;1.00;;;;;;5018177;28;20461;-79
2022/06/14 11:23:32;;;;;;;8.00;3.50;;;27.80;1.00;;;;;;5016136;28;20435;-78
2022/06/14 11:26:06;;;;;;;8.10;2.83;;;28.40;1.00;;;;;;5019369;28;20454;-79
2022/06/14 11:28:39;;;;;;;11.47;3.70;;;29.60;1.00;;;;;;5021054;28;20457;-79
2022/06/14 11:31:17;;;;;;;10.77;2.93;;;30.10;1.00;;;;;;5019347;28;20456;-78
2022/06/14 11:34:00;;;;;;;5.93;2.77;;;28.30;1.00;;;;;;5016752;28;20442;-80
2022/06/14 11:36:39;;;;;;;6.73;2.60;;;27.40;1.00;;;;;;5030694;28;21060;-81
2022/06/14 11:39:17;;;;;;;8.80;3.13;;;27.20;1.00;;;;;;5031910;28;20460;-80
2022/06/14 11:41:46;;;;;;;11.13;3.10;;;26.60;1.00;;;;;;5034022;28;20434;-80
2022/06/14 11:44:29;;;;;;;8.07;3.07;;;26.10;1.00;;;;;;5032729;28;20481;-80
2022/06/14 11:47:02;;;;;;;7.77;2.80;;;26.50;1.00;;;;;;5031253;28;20482;-81
2022/06/14 11:49:36;;;;;;;8.13;2.70;;;27.30;1.00;;;;;;5031058;28;20428;-80
2022/06/14 11:52:13;;;;;;;14.63;3.27;;;27.70;1.00;;;;;;5031672;28;20459;-80
2022/06/14 11:54:52;;;;;;;9.17;2.80;;;28.90;1.00;;;;;;5032438;28;20909;-80
2022/06/14 11:57:29;;;;;;;9.87;3.37;;;29.10;1.00;;;;;;5033039;28;20447;-80
2022/06/14 12:00:07;;;;;;;7.80;3.30;;;28.80;1.00;;;;;;5032558;28;20435;-81
2022/06/14 12:02:56;;;;;;;8.03;2.70;;;28.40;1.00;;;;;;5033196;28;20428;-80
2022/06/14 12:05:35;;;;;;;7.30;2.83;;;27.50;1.00;;;;;;5033273;28;20494;-80
2022/06/14 12:08:13;;;;;;;7.10;3.43;;;27.60;1.00;;;;;;5032838;28;20463;-81
2022/06/14 12:10:50;;;;;;;6.40;2.90;;;27.80;1.00;;;;;;5032691;28;20645;-80
2022/06/14 12:13:32;;;;;;;7.80;2.40;;;28.60;1.00;;;;;;5032024;28;20483;-82
2022/06/14 12:16:07;;;;;;;7.00;2.70;;;29.50;1.00;;;;;;5030068;28;20455;-80
2022/06/14 12:18:37;;;;;;;9.73;3.13;;;29.60;1.00;;;;;;5028642;28;20455;-80
2022/06/14 12:21:11;;;;;;;9.20;3.10;;;29.10;1.00;;;;;;5029382;28;20446;-80
2022/06/14 12:23:42;;;;;;;10.53;3.10;;;29.50;1.00;;;;;;5025287;28;20461;-79
2022/06/14 12:29:05;;;;;;;6.60;2.47;;;30.20;1.00;;;;;;5027172;28;20439;-80
2022/06/14 12:31:42;;;;;;;7.20;2.13;;;29.70;1.00;;;;;;5017674;28;20427;-79
2022/06/14 12:34:17;;;;;;;7.97;2.60;;;28.50;1.00;;;;;;5014210;28;20461;-79
2022/06/14 12:36:53;;;;;;;9.13;3.20;;;28.50;1.00;;;;;;5014050;28;20447;-78
2022/06/14 12:39:27;;;;;;;7.80;2.60;;;28.90;1.00;;;;;;5014286;28;20849;-76
2022/06/14 12:42:01;;;;;;;11.77;3.67;;;29.50;1.00;;;;;;5014428;28;20441;-78
2022/06/14 12:44:47;;;;;;;9.00;3.17;;;29.00;1.00;;;;;;5013690;28;20447;-78
2022/06/14 12:47:18;;;;;;;9.80;3.27;;;30.00;1.00;;;;;;5013658;28;20814;-78
2022/06/14 12:49:48;;;;;;;6.40;2.90;;;30.40;1.00;;;;;;5013333;28;20424;-78
2022/06/14 12:52:22;;;;;;;11.63;3.03;;;29.40;1.00;;;;;;5013882;28;20460;-78
2022/06/14 12:54:57;;;;;;;7.90;2.77;;;28.80;1.00;;;;;;5013985;28;20435;-78
2022/06/14 12:57:40;;;;;;;11.87;3.70;;;30.00;1.00;;;;;;5018353;28;20447;-80
2022/06/14 13:00:13;;;;;;;10.27;2.67;;;29.00;1.00;;;;;;5024501;28;20456;-79
2022/06/14 13:02:44;;;;;;;9.83;3.33;;;29.00;1.00;;;;;;5018587;28;20457;-79
2022/06/14 13:05:17;;;;;;;9.53;3.67;;;29.00;1.00;;;;;;5028699;28;20484;-80
2022/06/14 13:08:00;;;;;;;6.30;2.70;;;29.40;1.00;;;;;;5027071;28;20483;-80
2022/06/14 13:10:36;;;;;;;11.60;3.23;;;31.40;1.00;;;;;;5024581;28;20694;-82
2022/06/14 13:13:26;;;;;;;9.00;2.80;;;32.10;1.00;;;;;;5032059;28;20437;-82
2022/06/14 13:16:00;;;;;;;9.37;2.83;;;32.70;1.00;;;;;;5028385;28;20448;-81
2022/06/14 13:18:40;;;;;;;5.80;2.23;;;31.50;1.00;;;;;;5027183;28;21295;-80
2022/06/14 13:21:18;;;;;;;8.63;2.57;;;30.80;1.00;;;;;;5026177;28;20803;-80
2022/06/14 13:23:57;;;;;;;6.87;2.87;;;30.90;1.00;;;;;;5026454;28;20457;-80
2022/06/14 13:26:44;;;;;;;8.80;3.13;;;29.30;1.00;;;;;;5024583;28;20459;-80
2022/06/14 13:29:34;;;;;;;9.80;3.47;;;29.60;1.00;;;;;;5023982;28;20428;-80
2022/06/14 13:32:13;;;;;;;11.93;2.80;;;29.40;1.00;;;;;;5025649;28;20460;-79
2022/06/14 13:34:48;;;;;;;9.90;2.97;;;29.10;1.00;;;;;;5023488;28;20429;-80
2022/06/14 13:37:24;;;;;;;9.10;2.60;;;29.40;1.00;;;;;;5025158;28;20447;-80
2022/06/14 13:40:00;;;;;;;9.37;3.00;;;29.90;1.00;;;;;;5023856;28;20427;-80
2022/06/14 13:42:35;;;;;;;7.47;3.07;;;30.40;1.00;;;;;;5025470;28;20423;-80
2022/06/14 13:45:09;;;;;;;13.40;3.53;;;30.50;1.00;;;;;;5025686;28;20459;-80